Time;durP1;ratioP1;P1;durP2;ratioP2;P2;SDS_P1;SDS_P2;PMS_P1;PMS_P2;Temp;Humidity;BMP_temperature;BMP_pressure;BME280_temperature;BME280_humidity;BME280_pressure;Samples;Min_cycle;Max_cycle;Signal;HPM_P1;HPM_P2
2023/01/30 00:00:22;;;;;;;11.20;6.60;;;;;;;-4.79;100.00;96471.13;10329498;28;20202;-65
2023/01/30 00:05:22;;;;;;;9.47;5.80;;;;;;;-4.95;100.00;96464.13;10328775;28;20239;-65
2023/01/30 00:10:23;;;;;;;11.33;6.17;;;;;;;-4.86;100.00;96452.69;10329393;28;20559;-65
2023/01/30 00:15:23;;;;;;;10.13;6.43;;;;;;;-4.79;100.00;96443.88;10332060;28;20737;-66
2023/01/30 00:20:23;;;;;;;8.40;5.17;;;;;;;-4.75;100.00;96437.69;10336786;28;20688;-66
2023/01/30 00:25:25;;;;;;;9.90;5.23;;;;;;;-4.62;100.00;96420.09;10336439;28;20713;-65
2023/01/30 00:30:26;;;;;;;10.27;6.37;;;;;;;-4.52;100.00;96411.13;10336065;28;20190;-66
2023/01/30 00:35:29;;;;;;;7.10;5.07;;;;;;;-4.48;99.73;96396.44;10336266;28;20209;-65
2023/01/30 00:40:29;;;;;;;9.80;5.80;;;;;;;-4.43;100.00;96406.47;10318024;28;20218;-63
2023/01/30 00:50:48;;;;;;;8.70;5.70;;;;;;;-4.37;100.00;96414.66;10332963;28;20210;-64
2023/01/30 00:55:53;;;;;;;10.40;6.60;;;;;;;-4.10;100.00;96414.25;10318014;28;20697;-61
2023/01/30 01:00:54;;;;;;;10.80;7.03;;;;;;;-4.04;100.00;96423.34;10333648;28;20257;-64
2023/01/30 01:05:54;;;;;;;11.77;6.87;;;;;;;-3.98;100.00;96423.91;10317337;28;20719;-62
2023/01/30 01:10:55;;;;;;;7.67;4.80;;;;;;;-3.88;100.00;96406.34;10334797;28;20190;-65
2023/01/30 01:15:55;;;;;;;9.80;6.70;;;;;;;-3.90;100.00;96423.53;10334453;28;20213;-64
2023/01/30 01:20:55;;;;;;;6.90;4.53;;;;;;;-3.81;100.00;96428.19;10334282;28;20197;-65
2023/01/30 01:26:00;;;;;;;12.13;6.27;;;;;;;-3.75;100.00;96424.50;10316618;28;20739;-64
2023/01/30 01:31:09;;;;;;;11.60;7.37;;;;;;;-3.81;100.00;96404.34;10333978;28;20684;-65
2023/01/30 01:36:10;;;;;;;11.43;7.03;;;;;;;-3.67;100.00;96389.13;10333999;28;20264;-64
2023/01/30 01:41:11;;;;;;;10.90;6.40;;;;;;;-3.61;100.00;96378.56;10333214;28;20245;-64
2023/01/30 01:46:18;;;;;;;13.67;7.40;;;;;;;-3.62;100.00;96351.31;10333017;28;20269;-64
2023/01/30 01:51:28;;;;;;;16.80;8.43;;;;;;;-3.68;100.00;96340.56;10315620;28;20281;-62
2023/01/30 01:56:30;;;;;;;13.73;8.37;;;;;;;-3.78;100.00;96356.38;10331585;28;20214;-63
2023/01/30 02:01:30;;;;;;;11.17;8.00;;;;;;;-3.73;100.00;96347.66;10330956;28;20813;-63
2023/01/30 02:06:31;;;;;;;11.37;6.53;;;;;;;-3.65;100.00;96315.63;10332370;28;20209;-63
2023/01/30 02:11:40;;;;;;;9.80;7.33;;;;;;;-3.54;100.00;96299.69;10331357;28;20561;-64
2023/01/30 02:16:42;;;;;;;13.20;8.30;;;;;;;-3.42;100.00;96270.06;10314237;28;20341;-65
2023/01/30 02:22:00;;;;;;;13.73;8.90;;;;;;;-3.24;100.00;96274.22;10332099;28;20639;-65
2023/01/30 02:27:22;;;;;;;11.37;6.30;;;;;;;-3.03;100.00;96261.16;10330251;28;20221;-65
2023/01/30 02:32:47;;;;;;;12.83;9.00;;;;;;;-2.78;100.00;96275.19;10331898;28;20627;-64
2023/01/30 02:38:07;;;;;;;12.17;8.13;;;;;;;-2.43;100.00;96233.91;10330830;28;20682;-64
2023/01/30 02:43:21;;;;;;;11.97;7.33;;;;;;;-2.21;100.00;96256.56;10297330;28;20218;-63
2023/01/30 02:48:38;;;;;;;11.60;6.83;;;;;;;-2.07;100.00;96258.31;10329586;28;20222;-62
2023/01/30 02:53:39;;;;;;;8.43;6.63;;;;;;;-2.04;100.00;96265.84;10329664;28;20196;-62
2023/01/30 02:58:53;;;;;;;9.53;6.87;;;;;;;-1.95;100.00;96255.03;10313081;28;20564;-62
2023/01/30 03:04:36;;;;;;;9.83;7.17;;;;;;;-1.90;100.00;96229.94;10313082;28;20226;-63
2023/01/30 03:09:53;;;;;;;11.10;7.83;;;;;;;-1.90;100.00;96206.81;10312702;28;20209;-62
2023/01/30 03:14:57;;;;;;;8.93;5.30;;;;;;;-1.81;100.00;96180.59;10312280;28;20730;-61
2023/01/30 03:19:58;;;;;;;9.80;6.60;;;;;;;-1.73;100.00;96187.00;10328573;28;20732;-61
2023/01/30 03:24:58;;;;;;;8.63;5.57;;;;;;;-1.68;100.00;96190.94;10328588;28;20329;-61
2023/01/30 03:29:59;;;;;;;10.50;8.13;;;;;;;-1.57;100.00;96185.13;10313991;28;20214;-65
2023/01/30 03:34:59;;;;;;;11.23;6.80;;;;;;;-1.48;100.00;96151.16;10313798;28;20204;-65
2023/01/30 03:40:00;;;;;;;10.20;6.73;;;;;;;-1.42;100.00;96139.69;10310067;28;20213;-61
2023/01/30 03:45:00;;;;;;;10.57;7.17;;;;;;;-1.47;100.00;96114.28;10303633;28;20644;-64
2023/01/30 03:50:01;;;;;;;10.10;6.57;;;;;;;-1.32;100.00;96127.06;10310651;28;20329;-61
2023/01/30 03:55:03;;;;;;;9.43;7.07;;;;;;;-1.30;100.00;96125.25;10312510;28;20216;-62
2023/01/30 04:00:04;;;;;;;10.33;6.03;;;;;;;-1.31;100.00;96106.41;10327715;28;20210;-62
2023/01/30 04:05:11;;;;;;;9.57;6.00;;;;;;;-1.24;100.00;96106.03;10334245;28;20222;-65
2023/01/30 04:10:18;;;;;;;8.37;5.47;;;;;;;-1.15;100.00;96120.84;10335488;28;20592;-65
2023/01/30 04:15:19;;;;;;;9.00;5.87;;;;;;;-1.11;100.00;96105.13;10335403;28;20195;-64
2023/01/30 04:20:36;;;;;;;10.50;8.00;;;;;;;-1.16;100.00;96109.75;10335191;28;20186;-64
2023/01/30 04:25:36;;;;;;;10.47;7.20;;;;;;;-1.11;100.00;96112.84;10334921;28;20219;-65
2023/01/30 04:30:40;;;;;;;10.53;7.37;;;;;;;-1.10;100.00;96095.69;10336177;28;20186;-62
2023/01/30 04:36:04;;;;;;;10.47;6.40;;;;;;;-1.05;100.00;96085.13;10335112;28;20285;-63
2023/01/30 04:41:05;;;;;;;10.37;6.07;;;;;;;-1.05;100.00;96082.53;10334927;28;20190;-63
2023/01/30 04:46:08;;;;;;;7.03;5.00;;;;;;;-1.00;100.00;96083.88;10317822;28;20935;-62
2023/01/30 04:51:08;;;;;;;7.63;5.00;;;;;;;-0.92;100.00;96058.50;10318418;28;20190;-61
2023/01/30 04:56:11;;;;;;;9.63;6.13;;;;;;;-0.88;100.00;96078.84;10335699;28;20209;-60
2023/01/30 05:01:29;;;;;;;9.37;7.33;;;;;;;-0.75;100.00;96029.06;10334704;28;20673;-62
2023/01/30 05:06:30;;;;;;;7.87;5.97;;;;;;;-0.76;100.00;96030.00;10333562;28;20689;-61
2023/01/30 05:11:31;;;;;;;10.00;6.30;;;;;;;-0.66;100.00;96014.78;10335101;28;20190;-61
2023/01/30 05:16:31;;;;;;;9.03;5.47;;;;;;;-0.64;100.00;95994.09;10334322;28;20224;-63
2023/01/30 05:21:32;;;;;;;9.97;7.80;;;;;;;-0.70;100.00;96007.34;10334291;28;20218;-62
2023/01/30 05:26:32;;;;;;;10.73;6.77;;;;;;;-0.62;100.00;95989.66;10334308;28;20708;-62
2023/01/30 05:31:34;;;;;;;11.13;8.73;;;;;;;-0.66;100.00;95959.91;10334184;28;20694;-63
2023/01/30 05:36:34;;;;;;;9.83;7.17;;;;;;;-0.59;100.00;95979.97;10336254;28;20210;-61
2023/01/30 05:41:35;;;;;;;8.20;6.87;;;;;;;-0.56;100.00;95963.50;10333594;28;20590;-62
2023/01/30 05:46:35;;;;;;;11.77;7.07;;;;;;;-0.57;100.00;95949.84;10333146;28;20710;-62
2023/01/30 05:51:35;;;;;;;12.63;8.37;;;;;;;-0.58;100.00;95953.34;10333419;28;20559;-64
2023/01/30 05:56:36;;;;;;;10.40;6.23;;;;;;;-0.52;100.00;95954.66;10332856;28;20611;-64
2023/01/30 06:01:36;;;;;;;10.50;6.37;;;;;;;-0.50;100.00;95946.84;10333067;28;20663;-63
2023/01/30 06:06:36;;;;;;;8.50;6.87;;;;;;;-0.51;100.00;95925.41;10332545;28;20891;-63
2023/01/30 06:11:37;;;;;;;9.40;7.77;;;;;;;-0.41;100.00;95915.31;10331907;28;20194;-64
2023/01/30 06:16:37;;;;;;;10.60;6.17;;;;;;;-0.40;100.00;95920.34;10331807;28;20219;-63
2023/01/30 06:21:38;;;;;;;10.33;7.43;;;;;;;-0.36;100.00;95916.59;10332056;28;20276;-62
2023/01/30 06:26:38;;;;;;;11.20;8.10;;;;;;;-0.34;100.00;95925.97;10331886;28;20229;-64
2023/01/30 06:31:39;;;;;;;15.00;10.80;;;;;;;-0.34;100.00;95920.84;10331900;28;20281;-63
2023/01/30 06:36:39;;;;;;;10.07;6.93;;;;;;;-0.29;100.00;95911.03;10331432;28;20214;-64
2023/01/30 06:41:39;;;;;;;10.90;8.13;;;;;;;-0.31;100.00;95918.03;10331307;28;20225;-63
2023/01/30 06:46:39;;;;;;;9.83;7.63;;;;;;;-0.22;100.00;95905.34;10330968;28;20327;-64
2023/01/30 06:51:40;;;;;;;9.13;7.27;;;;;;;-0.10;100.00;95915.69;10352019;23;20252;-64
2023/01/30 06:56:40;;;;;;;11.10;7.30;;;;;;;-0.05;100.00;95916.97;10330516;28;20198;-65
2023/01/30 07:01:41;;;;;;;10.10;7.70;;;;;;;0.02;100.00;95929.44;10330379;28;20313;-65
2023/01/30 07:06:41;;;;;;;9.60;6.13;;;;;;;-0.08;100.00;95932.66;10330100;28;20202;-64
2023/01/30 07:11:41;;;;;;;10.47;7.80;;;;;;;-0.21;100.00;95953.31;10330272;28;20701;-64
2023/01/30 07:16:42;;;;;;;9.50;6.47;;;;;;;-0.23;100.00;95946.63;10329396;28;20585;-60
2023/01/30 07:21:42;;;;;;;10.30;7.73;;;;;;;-0.28;100.00;95962.38;10329796;28;20713;-60
2023/01/30 07:26:42;;;;;;;10.17;6.70;;;;;;;-0.27;100.00;95940.88;10329649;28;20569;-63
2023/01/30 07:31:43;;;;;;;8.47;6.13;;;;;;;-0.13;100.00;95947.63;10329561;28;20712;-60
2023/01/30 07:36:43;;;;;;;7.80;5.23;;;;;;;-0.05;100.00;95932.44;10329508;28;20237;-61
2023/01/30 07:41:43;;;;;;;8.73;6.60;;;;;;;0.01;100.00;95938.09;10329426;28;20709;-63
2023/01/30 07:46:44;;;;;;;8.20;5.90;;;;;;;-0.07;100.00;95926.59;10311636;28;20696;-63
2023/01/30 07:51:45;;;;;;;9.50;6.47;;;;;;;-0.12;100.00;95925.25;10329318;28;20320;-59
2023/01/30 07:56:46;;;;;;;9.87;7.60;;;;;;;-0.06;100.00;95928.25;10328961;28;20185;-58
2023/01/30 08:01:46;;;;;;;7.03;5.47;;;;;;;-0.11;100.00;95916.63;10328938;28;20245;-60
2023/01/30 08:06:46;;;;;;;8.70;5.63;;;;;;;-0.07;100.00;95918.84;10329071;28;20565;-64
2023/01/30 08:11:47;;;;;;;8.27;6.00;;;;;;;-0.15;100.00;95910.88;10328782;28;20276;-60
2023/01/30 08:16:47;;;;;;;10.50;5.30;;;;;;;-0.11;100.00;95914.84;10328574;28;20285;-61
2023/01/30 08:21:48;;;;;;;9.93;7.80;;;;;;;-0.20;100.00;95930.97;10325947;28;20232;-63
2023/01/30 08:26:48;;;;;;;8.30;5.93;;;;;;;-0.34;100.00;95923.41;10327655;28;20649;-62
2023/01/30 08:31:48;;;;;;;7.20;4.70;;;;;;;-0.39;100.00;95921.16;10328633;28;20583;-59
2023/01/30 08:36:49;;;;;;;8.27;6.30;;;;;;;-0.29;100.00;95929.88;10332038;28;20632;-62
2023/01/30 08:41:49;;;;;;;8.03;5.87;;;;;;;-0.25;100.00;95925.31;10336073;28;20670;-60
2023/01/30 08:46:49;;;;;;;7.13;4.40;;;;;;;-0.23;100.00;95929.44;10335674;28;20614;-62
2023/01/30 08:51:50;;;;;;;6.23;4.23;;;;;;;-0.21;100.00;95926.75;10335389;28;20263;-61
2023/01/30 08:56:50;;;;;;;7.20;5.10;;;;;;;-0.24;100.00;95932.13;10335272;28;20851;-62
2023/01/30 09:01:50;;;;;;;6.93;5.23;;;;;;;-0.25;100.00;95922.75;10335055;28;20587;-63
2023/01/30 09:06:51;;;;;;;29.07;13.83;;;;;;;-0.22;100.00;95925.91;10334874;28;20705;-64
2023/01/30 09:11:51;;;;;;;16.30;8.37;;;;;;;-0.24;100.00;95922.66;10334615;28;20556;-65
2023/01/30 09:16:54;;;;;;;7.23;4.67;;;;;;;-0.19;100.00;95915.41;10333983;28;20189;-63
2023/01/30 09:21:55;;;;;;;6.20;5.60;;;;;;;-0.14;100.00;95891.09;10333664;28;20230;-63
2023/01/30 09:26:57;;;;;;;6.77;4.63;;;;;;;-0.07;100.00;95915.47;10333981;28;20186;-65
2023/01/30 09:31:58;;;;;;;4.80;4.13;;;;;;;-0.02;100.00;95906.47;10324956;28;20213;-63
2023/01/30 09:36:59;;;;;;;5.10;3.60;;;;;;;0.09;100.00;95887.69;10293236;28;20210;-65
2023/01/30 09:42:18;;;;;;;6.63;4.33;;;;;;;0.15;100.00;95909.56;10292877;28;20712;-66
2023/01/30 09:47:38;;;;;;;5.33;4.03;;;;;;;0.24;100.00;95906.31;10293068;28;20212;-66
2023/01/30 09:52:50;;;;;;;3.70;2.87;;;;;;;0.12;100.00;95907.22;10294792;28;20658;-65
2023/01/30 09:57:50;;;;;;;5.53;3.83;;;;;;;0.20;100.00;95904.09;10325941;28;20229;-66
2023/01/30 10:03:11;;;;;;;3.23;2.93;;;;;;;0.34;100.00;95880.72;10327636;28;20798;-66
2023/01/30 10:08:14;;;;;;;7.33;4.93;;;;;;;0.33;100.00;95864.44;10328335;28;20572;-66
2023/01/30 10:13:48;;;;;;;4.83;3.67;;;;;;;0.46;100.00;95860.94;10324990;28;20194;-65
2023/01/30 10:18:58;;;;;;;3.60;3.20;;;;;;;0.52;100.00;95842.44;10269076;28;20318;-65
2023/01/30 10:24:36;;;;;;;3.73;3.27;;;;;;;0.56;100.00;95843.84;10310220;28;20217;-66
2023/01/30 10:29:38;;;;;;;4.77;3.57;;;;;;;0.77;100.00;95843.16;10327533;28;20603;-66
2023/01/30 10:34:51;;;;;;;4.97;3.40;;;;;;;0.61;100.00;95852.03;10312543;28;20205;-67
2023/01/30 10:40:01;;;;;;;6.30;3.03;;;;;;;0.65;100.00;95843.16;10303536;28;20217;-67
2023/01/30 10:45:09;;;;;;;4.10;3.70;;;;;;;0.59;100.00;95838.47;10325780;28;20255;-67
2023/01/30 10:50:14;;;;;;;4.47;3.63;;;;;;;0.54;100.00;95843.16;10313627;28;20717;-67
2023/01/30 10:55:23;;;;;;;4.90;3.97;;;;;;;0.46;100.00;95832.59;10325701;28;20730;-66
2023/01/30 11:00:28;;;;;;;3.43;2.73;;;;;;;0.30;100.00;95854.34;10325557;28;20234;-66
2023/01/30 11:05:48;;;;;;;4.93;4.43;;;;;;;0.24;100.00;95835.97;10317907;28;20647;-66
2023/01/30 11:10:50;;;;;;;3.70;3.20;;;;;;;0.28;100.00;95853.66;10309903;28;20583;-66
2023/01/30 11:15:52;;;;;;;3.93;2.87;;;;;;;0.13;100.00;95844.50;10314881;28;20915;-66
2023/01/30 11:21:07;;;;;;;2.73;2.43;;;;;;;0.23;100.00;95853.19;10309336;28;20284;-66
2023/01/30 11:26:18;;;;;;;4.40;3.20;;;;;;;0.16;100.00;95855.38;10325361;28;20248;-65
2023/01/30 11:31:25;;;;;;;4.87;3.80;;;;;;;0.09;100.00;95849.06;10342259;28;20330;-66
2023/01/30 11:36:31;;;;;;;3.80;3.20;;;;;;;0.14;100.00;95834.09;10346695;28;20677;-66
2023/01/30 11:41:31;;;;;;;3.17;2.70;;;;;;;0.06;100.00;95830.44;10352498;28;20217;-66
2023/01/30 11:46:37;;;;;;;4.47;3.30;;;;;;;-0.01;100.00;95846.31;10365491;28;20196;-65
2023/01/30 11:51:39;;;;;;;4.97;3.80;;;;;;;-0.10;100.00;95847.00;10334945;28;20232;-64
2023/01/30 11:56:46;;;;;;;6.00;4.03;;;;;;;-0.05;100.00;95820.91;10324410;28;20272;-65
2023/01/30 12:01:46;;;;;;;4.83;3.97;;;;;;;0.08;100.00;95836.31;10319361;28;20230;-65
2023/01/30 12:07:03;;;;;;;4.40;3.40;;;;;;;0.24;100.00;95848.84;10322980;28;20201;-66
2023/01/30 12:12:28;;;;;;;3.60;2.90;;;;;;;0.22;100.00;95830.13;10359552;28;20302;-65
2023/01/30 12:17:37;;;;;;;5.07;3.40;;;;;;;0.29;100.00;95810.69;10366776;28;20202;-65
2023/01/30 12:22:42;;;;;;;3.70;2.73;;;;;;;0.45;100.00;95806.00;10311154;28;20320;-66
2023/01/30 12:27:56;;;;;;;9.17;5.27;;;;;;;0.45;100.00;95782.00;10328217;28;20224;-65
2023/01/30 12:33:02;;;;;;;3.60;3.27;;;;;;;0.37;100.00;95786.91;10309460;28;20197;-66
2023/01/30 12:38:12;;;;;;;8.57;5.60;;;;;;;0.38;100.00;95783.41;10331153;28;20225;-66
2023/01/30 12:43:25;;;;;;;4.90;4.27;;;;;;;0.33;100.00;95794.06;10329736;28;20226;-65
2023/01/30 12:48:32;;;;;;;6.17;3.50;;;;;;;0.39;100.00;95782.47;10340889;23;20244;-64
2023/01/30 12:53:46;;;;;;;5.20;3.97;;;;;;;0.40;100.00;95761.75;10395456;28;20240;-64
2023/01/30 12:59:20;;;;;;;10.83;5.63;;;;;;;0.51;100.00;95763.50;10360898;28;20263;-64
2023/01/30 13:04:37;;;;;;;3.67;2.77;;;;;;;0.49;100.00;95755.06;10394129;28;20247;-64
2023/01/30 13:10:13;;;;;;;6.33;3.67;;;;;;;0.55;100.00;95757.16;10393465;28;20231;-63
2023/01/30 13:15:32;;;;;;;6.13;3.20;;;;;;;0.49;100.00;95749.91;10369585;28;20204;-64
2023/01/30 13:20:53;;;;;;;7.10;3.47;;;;;;;0.47;100.00;95751.78;10450669;28;20239;-62
2023/01/30 13:26:02;;;;;;;5.20;2.77;;;;;;;0.53;100.00;95759.03;10433265;28;20226;-64
2023/01/30 13:31:09;;;;;;;9.07;2.50;;;;;;;0.73;100.00;95761.84;10438834;28;20216;-61
2023/01/30 13:36:23;;;;;;;4.30;2.60;;;;;;;0.65;100.00;95765.84;10451721;28;20567;-64
2023/01/30 13:41:24;;;;;;;4.73;2.50;;;;;;;0.77;100.00;95773.56;10432573;28;20695;-63
2023/01/30 13:46:26;;;;;;;14.87;7.73;;;;;;;0.72;100.00;95771.34;10438981;28;20195;-63
2023/01/30 13:51:45;;;;;;;10.90;4.37;;;;;;;0.58;100.00;95767.22;10431748;28;20293;-64
2023/01/30 13:56:50;;;;;;;5.83;2.60;;;;;;;0.57;100.00;95769.94;10450243;28;20570;-64
2023/01/30 14:02:02;;;;;;;5.47;2.93;;;;;;;0.65;100.00;95759.88;10432822;28;20285;-63
2023/01/30 14:07:16;;;;;;;5.07;3.20;;;;;;;0.68;100.00;95772.50;10410170;28;20205;-63
2023/01/30 14:12:24;;;;;;;7.07;3.20;;;;;;;0.53;100.00;95767.59;10367094;28;20204;-60
2023/01/30 14:17:24;;;;;;;5.17;2.43;;;;;;;0.68;100.00;95762.22;10374833;28;20196;-62
2023/01/30 14:22:40;;;;;;;5.93;2.73;;;;;;;0.69;100.00;95774.16;10382134;28;20565;-64
2023/01/30 14:27:40;;;;;;;10.67;3.43;;;;;;;0.59;100.00;95765.50;10352874;28;20214;-63
2023/01/30 14:32:52;;;;;;;9.40;3.30;;;;;;;0.46;100.00;95763.88;10376586;28;20216;-60
2023/01/30 14:38:09;;;;;;;6.63;3.37;;;;;;;0.46;100.00;95757.88;10392375;28;20290;-63
2023/01/30 14:43:15;;;;;;;18.70;10.63;;;;;;;0.57;100.00;95768.19;10406635;28;20602;-64
2023/01/30 14:48:42;;;;;;;6.83;3.13;;;;;;;0.66;100.00;95770.06;10380934;28;20676;-64
2023/01/30 14:54:05;;;;;;;7.17;2.90;;;;;;;0.79;100.00;95775.06;10374297;28;20292;-62
2023/01/30 14:59:10;;;;;;;9.03;2.50;;;;;;;0.73;100.00;95778.13;10355596;28;20235;-62
2023/01/30 15:04:13;;;;;;;6.03;2.60;;;;;;;0.68;100.00;95777.66;10390205;28;20302;-64
2023/01/30 15:09:22;;;;;;;9.23;2.70;;;;;;;0.56;100.00;95794.06;10352808;28;20230;-64
2023/01/30 15:14:28;;;;;;;7.67;2.60;;;;;;;0.44;100.00;95794.06;10364966;28;20201;-63
2023/01/30 15:19:39;;;;;;;3.93;3.00;;;;;;;0.45;100.00;95794.91;10391598;28;20730;-64
2023/01/30 15:25:15;;;;;;;5.57;3.20;;;;;;;0.41;100.00;95793.47;10365861;28;20260;-64
2023/01/30 15:30:37;;;;;;;4.83;2.80;;;;;;;0.38;100.00;95806.59;10394798;28;20242;-64
2023/01/30 15:35:37;;;;;;;6.93;2.83;;;;;;;0.35;100.00;95817.94;10407573;28;20275;-64
2023/01/30 15:40:39;;;;;;;8.27;3.60;;;;;;;-0.13;100.00;95823.25;10408275;28;20294;-65
2023/01/30 15:46:04;;;;;;;7.97;3.33;;;;;;;-0.14;100.00;95832.69;10422728;28;20280;-65
2023/01/30 15:51:12;;;;;;;3.70;2.40;;;;;;;-0.09;100.00;95837.50;10443558;28;20236;-64
2023/01/30 15:56:19;;;;;;;3.20;2.40;;;;;;;-0.06;100.00;95863.03;10416542;28;20192;-63
2023/01/30 16:01:20;;;;;;;13.10;4.70;;;;;;;-0.02;100.00;95880.72;10445391;28;20215;-65
2023/01/30 16:06:35;;;;;;;7.10;3.83;;;;;;;-0.08;100.00;95893.22;10462813;28;20219;-64
2023/01/30 16:11:40;;;;;;;13.47;4.80;;;;;;;-0.04;100.00;95882.59;10463052;28;20257;-63
2023/01/30 16:16:45;;;;;;;8.00;2.77;;;;;;;0.06;100.00;95887.06;10463370;28;20225;-63
2023/01/30 16:21:49;;;;;;;11.97;3.63;;;;;;;0.06;100.00;95898.22;10464870;28;20226;-63
2023/01/30 16:26:55;;;;;;;6.93;3.10;;;;;;;0.19;100.00;95905.03;10433111;28;20183;-63
2023/01/30 16:31:55;;;;;;;8.80;2.70;;;;;;;0.35;100.00;95915.84;10441326;28;20207;-64
2023/01/30 16:37:02;;;;;;;9.13;2.97;;;;;;;0.37;100.00;95895.97;10444782;28;20227;-64
2023/01/30 16:42:21;;;;;;;8.73;2.63;;;;;;;0.50;100.00;95894.09;10435826;28;20213;-63
2023/01/30 16:47:30;;;;;;;14.27;2.50;;;;;;;0.53;100.00;95900.78;10421919;28;20195;-64
2023/01/30 16:52:35;;;;;;;10.17;2.60;;;;;;;0.60;100.00;95901.97;10461534;28;20227;-63
2023/01/30 16:57:39;;;;;;;5.77;2.43;;;;;;;0.59;100.00;95905.47;10401900;28;20580;-63
2023/01/30 17:02:41;;;;;;;7.53;3.33;;;;;;;0.42;100.00;95934.25;10391511;28;20227;-66
2023/01/30 17:07:41;;;;;;;16.70;2.40;;;;;;;0.15;100.00;95927.59;10374123;28;20234;-64
2023/01/30 17:12:42;;;;;;;14.63;3.47;;;;;;;0.24;100.00;95921.78;10382916;28;20767;-65
2023/01/30 17:17:43;;;;;;;5.63;2.00;;;;;;;0.42;100.00;95939.41;10374672;28;20197;-65
2023/01/30 17:22:45;;;;;;;9.20;2.93;;;;;;;0.44;100.00;95953.00;10376999;28;20220;-63
2023/01/30 17:27:45;;;;;;;9.40;2.90;;;;;;;0.51;100.00;95954.19;10411002;28;20196;-64
2023/01/30 17:32:46;;;;;;;14.83;1.80;;;;;;;0.58;100.00;95950.22;10381478;28;20213;-64
2023/01/30 17:37:50;;;;;;;9.43;2.10;;;;;;;0.66;100.00;95947.91;10412703;28;20279;-64
2023/01/30 17:42:50;;;;;;;9.00;2.10;;;;;;;0.67;100.00;95944.41;10412042;28;20661;-64
2023/01/30 17:47:50;;;;;;;6.67;2.03;;;;;;;0.70;100.00;95944.16;10407515;28;20193;-64
2023/01/30 17:52:51;;;;;;;6.30;1.73;;;;;;;0.68;100.00;95952.94;10413857;28;20233;-64
2023/01/30 17:57:51;;;;;;;13.70;2.13;;;;;;;0.57;100.00;95958.91;10385007;28;20232;-64
2023/01/30 18:02:52;;;;;;;9.37;2.00;;;;;;;0.58;100.00;95986.28;10372705;28;20316;-64
2023/01/30 18:07:53;;;;;;;10.60;2.30;;;;;;;0.56;100.00;95993.31;10371237;28;20197;-64
2023/01/30 18:12:53;;;;;;;4.03;1.80;;;;;;;0.79;100.00;95995.97;10372532;28;20212;-64
2023/01/30 18:17:55;;;;;;;6.87;1.70;;;;;;;0.76;100.00;96011.66;10375898;28;20198;-65
2023/01/30 18:22:55;;;;;;;7.67;2.00;;;;;;;0.62;100.00;96026.38;10406392;28;20248;-66
2023/01/30 18:27:56;;;;;;;8.93;2.20;;;;;;;0.60;100.00;96041.13;10403329;28;20283;-65
2023/01/30 18:32:56;;;;;;;12.50;2.43;;;;;;;0.52;100.00;96052.00;10410600;28;20212;-64
2023/01/30 18:37:56;;;;;;;10.73;2.20;;;;;;;0.43;100.00;96055.25;10410688;28;20209;-65
2023/01/30 18:42:57;;;;;;;12.93;2.63;;;;;;;0.44;100.00;96068.94;10410208;28;20323;-64
2023/01/30 18:47:58;;;;;;;11.80;2.70;;;;;;;0.58;100.00;96080.84;10405482;28;20204;-65
2023/01/30 18:52:58;;;;;;;3.93;2.07;;;;;;;0.55;100.00;96087.03;10346667;23;20262;-78
2023/01/30 18:57:58;;;;;;;10.43;2.90;;;;;;;0.47;100.00;96099.63;10287477;28;20317;-78
2023/01/30 19:02:59;;;;;;;17.37;7.60;;;;;;;0.47;100.00;96097.88;10287539;28;20261;-79
2023/01/30 19:07:59;;;;;;;8.00;2.30;;;;;;;0.47;100.00;96094.50;10286964;28;20330;-80
2023/01/30 19:18:18;;;;;;;12.90;3.00;;;;;;;0.49;100.00;96121.81;10272060;28;20926;-78
2023/01/30 19:23:19;;;;;;;9.57;2.20;;;;;;;0.56;100.00;96122.19;10320018;28;20231;-77
2023/01/30 19:28:19;;;;;;;23.50;7.47;;;;;;;0.56;100.00;96142.78;10327299;28;20205;-79
2023/01/30 19:33:20;;;;;;;12.87;5.33;;;;;;;0.52;100.00;96149.09;10327334;28;20185;-77
2023/01/30 19:38:20;;;;;;;11.00;3.60;;;;;;;0.52;100.00;96172.28;10325938;28;20209;-77
2023/01/30 19:43:20;;;;;;;15.73;2.37;;;;;;;0.63;100.00;96189.56;10298106;28;20285;-77
2023/01/30 19:48:21;;;;;;;12.77;3.80;;;;;;;0.46;100.00;96191.59;10291212;28;20193;-77
2023/01/30 19:53:21;;;;;;;11.10;3.27;;;;;;;0.48;100.00;96205.19;10285849;28;20242;-76
2023/01/30 19:58:22;;;;;;;14.67;3.73;;;;;;;0.47;100.00;96211.25;10298171;28;20190;-76
2023/01/30 20:03:22;;;;;;;14.67;4.30;;;;;;;0.54;100.00;96219.41;10291990;28;20753;-76
2023/01/30 20:08:22;;;;;;;10.00;2.57;;;;;;;0.52;100.00;96222.09;10306028;28;20617;-76
2023/01/30 20:13:23;;;;;;;13.03;2.70;;;;;;;0.59;100.00;96226.81;10286517;28;20602;-76
2023/01/30 20:18:23;;;;;;;10.07;2.70;;;;;;;0.58;100.00;96220.81;10285854;28;20649;-77
2023/01/30 20:23:23;;;;;;;10.90;2.73;;;;;;;0.65;100.00;96227.19;10285698;28;20714;-78
2023/01/30 20:34:29;;;;;;;12.23;3.67;;;;;;;0.55;100.00;96241.66;10298694;28;20582;-76
2023/01/30 20:39:30;;;;;;;13.10;2.73;;;;;;;0.61;100.00;96238.66;10291298;28;20229;-76
2023/01/30 20:44:31;;;;;;;17.93;3.03;;;;;;;0.59;100.00;96248.25;10307914;28;20567;-76
2023/01/30 20:49:31;;;;;;;14.77;3.10;;;;;;;0.62;100.00;96260.13;10308125;28;20202;-77
2023/01/30 20:54:31;;;;;;;10.20;2.43;;;;;;;0.67;100.00;96252.88;10298582;28;20224;-76
2023/01/30 20:59:32;;;;;;;8.63;2.30;;;;;;;0.69;100.00;96279.38;10301742;28;20193;-76
2023/01/30 21:04:32;;;;;;;14.67;2.57;;;;;;;0.60;100.00;96283.41;10297591;28;20640;-76
2023/01/30 21:09:32;;;;;;;9.13;2.20;;;;;;;0.66;100.00;96292.50;10289904;28;20249;-76
2023/01/30 21:14:33;;;;;;;13.20;2.57;;;;;;;0.50;100.00;96303.00;10290050;28;20684;-77
2023/01/30 21:19:36;;;;;;;14.10;2.50;;;;;;;0.61;100.00;96305.66;10288576;28;20285;-76
2023/01/30 21:24:37;;;;;;;8.53;2.13;;;;;;;0.57;100.00;96301.66;10290858;28;20230;-76
2023/01/30 21:29:38;;;;;;;11.07;2.33;;;;;;;0.62;100.00;96304.75;10290132;28;20203;-76
2023/01/30 21:34:38;;;;;;;8.70;2.10;;;;;;;0.66;100.00;96308.78;10290962;28;20201;-77
2023/01/30 21:44:57;;;;;;;18.40;2.70;;;;;;;0.42;100.00;96297.56;10273050;28;20253;-77
2023/01/30 21:49:58;;;;;;;11.37;2.33;;;;;;;0.45;100.00;96310.22;10289432;28;20273;-77
2023/01/30 21:54:58;;;;;;;15.63;3.03;;;;;;;0.15;100.00;96340.53;10290543;28;20197;-77
2023/01/30 21:59:58;;;;;;;13.20;2.73;;;;;;;0.06;100.00;96348.00;10289421;28;20201;-76
2023/01/30 22:04:59;;;;;;;9.57;2.83;;;;;;;0.06;100.00;96355.75;10289244;28;20244;-76
2023/01/30 22:10:01;;;;;;;14.90;2.70;;;;;;;0.11;100.00;96359.69;10289116;28;20199;-76
2023/01/30 22:15:01;;;;;;;12.67;2.73;;;;;;;0.23;100.00;96382.97;10289712;28;20276;-77
2023/01/30 22:20:01;;;;;;;16.70;3.20;;;;;;;0.22;100.00;96377.00;10288362;28;20191;-76
2023/01/30 22:25:02;;;;;;;16.60;3.30;;;;;;;0.35;100.00;96384.72;10289104;28;20235;-77
2023/01/30 22:30:03;;;;;;;16.77;2.97;;;;;;;0.28;100.00;96378.34;10288097;28;20257;-77
2023/01/30 22:35:03;;;;;;;12.77;2.83;;;;;;;0.30;100.00;96391.94;10288523;28;20182;-77
2023/01/30 22:40:04;;;;;;;10.77;2.20;;;;;;;0.15;100.00;96411.81;10288441;28;20202;-76
2023/01/30 22:45:05;;;;;;;17.77;2.30;;;;;;;0.02;100.00;96447.03;10284866;28;20233;-74
2023/01/30 22:50:05;;;;;;;13.80;2.27;;;;;;;0.13;100.00;96453.09;10285213;28;20205;-75
2023/01/30 22:55:06;;;;;;;12.90;2.50;;;;;;;0.12;100.00;96450.63;10287134;28;20261;-75
2023/01/30 23:00:08;;;;;;;15.90;2.93;;;;;;;0.16;100.00;96434.88;10286947;28;20213;-74
2023/01/30 23:05:09;;;;;;;8.80;2.00;;;;;;;0.19;100.00;96439.03;10287214;28;20227;-76
2023/01/30 23:10:09;;;;;;;14.87;2.50;;;;;;;0.25;100.00;96448.94;10286934;28;20197;-75
2023/01/30 23:15:10;;;;;;;11.40;1.93;;;;;;;0.34;100.00;96434.63;10287068;28;20183;-77
2023/01/30 23:20:10;;;;;;;10.37;2.33;;;;;;;0.29;100.00;96439.25;10286315;28;20193;-75
2023/01/30 23:25:11;;;;;;;12.00;2.80;;;;;;;0.37;100.00;96416.41;10287020;28;20261;-77
2023/01/30 23:30:11;;;;;;;14.77;2.90;;;;;;;0.41;100.00;96419.59;10286187;28;20208;-77
2023/01/30 23:35:12;;;;;;;15.03;2.53;;;;;;;0.41;100.00;96410.09;10324117;28;20630;-77
2023/01/30 23:40:12;;;;;;;15.40;3.03;;;;;;;0.24;100.00;96418.94;10326751;28;20218;-77
2023/01/30 23:45:12;;;;;;;14.07;2.90;;;;;;;0.18;100.00;96429.63;10326049;28;20288;-77